sensor_id;sensor_type;location;lat;lon;timestamp;P1;durP1;ratioP1;P2;durP2;ratioP2
74648;SDS011;63168;49.280;7.214;2022-12-10T09:28:29;5.72;;;2.55;;
74648;SDS011;63168;49.280;7.214;2022-12-10T09:30:55;4.63;;;2.25;;
74648;SDS011;63168;49.280;7.214;2022-12-10T09:33:21;4.53;;;2.40;;
74648;SDS011;63168;49.280;7.214;2022-12-10T09:35:47;4.17;;;2.20;;
74648;SDS011;63168;49.280;7.214;2022-12-10T09:38:13;19.47;;;7.83;;
74648;SDS011;63168;49.280;7.214;2022-12-10T09:40:40;89.07;;;32.13;;
74648;SDS011;63168;49.280;7.214;2022-12-10T09:43:12;67.55;;;26.35;;
74648;SDS011;63168;49.280;7.214;2022-12-10T09:45:49;64.28;;;22.73;;
74648;SDS011;63168;49.280;7.214;2022-12-10T09:48:25;54.35;;;21.30;;
74648;SDS011;63168;49.280;7.214;2022-12-10T09:50:59;56.25;;;20.30;;
74648;SDS011;63168;49.280;7.214;2022-12-10T09:53:33;50.38;;;19.48;;
74648;SDS011;63168;49.280;7.214;2022-12-10T09:56:01;48.17;;;19.42;;
74648;SDS011;63168;49.280;7.214;2022-12-10T09:58:28;53.90;;;18.50;;
74648;SDS011;63168;49.280;7.214;2022-12-10T10:00:55;50.45;;;17.83;;
74648;SDS011;63168;49.280;7.214;2022-12-10T10:03:23;46.40;;;17.30;;
74648;SDS011;63168;49.280;7.214;2022-12-10T10:05:49;42.33;;;17.38;;
74648;SDS011;63168;49.280;7.214;2022-12-10T10:08:21;44.40;;;16.50;;
74648;SDS011;63168;49.280;7.214;2022-12-10T10:10:52;41.10;;;16.42;;
74648;SDS011;63168;49.280;7.214;2022-12-10T10:13:18;42.13;;;16.47;;
74648;SDS011;63168;49.280;7.214;2022-12-10T10:15:55;55.67;;;22.38;;
74648;SDS011;63168;49.280;7.214;2022-12-10T10:18:23;54.85;;;23.77;;
74648;SDS011;63168;49.280;7.214;2022-12-10T10:20:54;59.03;;;22.88;;
74648;SDS011;63168;49.280;7.214;2022-12-10T10:23:21;60.47;;;26.02;;
74648;SDS011;63168;49.280;7.214;2022-12-10T10:25:46;63.97;;;25.60;;
74648;SDS011;63168;49.280;7.214;2022-12-10T10:28:13;72.30;;;27.33;;
74648;SDS011;63168;49.280;7.214;2022-12-10T10:30:46;65.07;;;26.95;;
74648;SDS011;63168;49.280;7.214;2022-12-10T10:33:14;60.70;;;26.05;;
74648;SDS011;63168;49.280;7.214;2022-12-10T10:35:44;63.10;;;27.10;;
74648;SDS011;63168;49.280;7.214;2022-12-10T10:38:16;58.35;;;25.70;;
74648;SDS011;63168;49.280;7.214;2022-12-10T10:40:45;58.38;;;26.05;;
74648;SDS011;63168;49.280;7.214;2022-12-10T10:43:15;61.90;;;24.85;;
74648;SDS011;63168;49.280;7.214;2022-12-10T10:45:47;58.60;;;23.65;;
74648;SDS011;63168;49.280;7.214;2022-12-10T10:48:18;59.78;;;25.02;;
74648;SDS011;63168;49.280;7.214;2022-12-10T10:50:46;54.20;;;23.33;;
74648;SDS011;63168;49.280;7.214;2022-12-10T10:56:09;51.83;;;22.40;;
74648;SDS011;63168;49.280;7.214;2022-12-10T10:58:50;53.25;;;22.35;;
74648;SDS011;63168;49.280;7.214;2022-12-10T11:01:23;48.70;;;21.58;;
74648;SDS011;63168;49.280;7.214;2022-12-10T11:03:53;51.37;;;21.37;;
74648;SDS011;63168;49.280;7.214;2022-12-10T11:06:22;47.03;;;19.77;;
74648;SDS011;63168;49.280;7.214;2022-12-10T11:08:48;51.13;;;21.38;;
74648;SDS011;63168;49.280;7.214;2022-12-10T11:11:17;46.38;;;18.90;;
74648;SDS011;63168;49.280;7.214;2022-12-10T11:13:45;49.40;;;19.15;;
74648;SDS011;63168;49.280;7.214;2022-12-10T11:16:12;46.00;;;18.47;;
74648;SDS011;63168;49.280;7.214;2022-12-10T11:18:43;45.90;;;19.33;;
74648;SDS011;63168;49.280;7.214;2022-12-10T11:21:20;43.75;;;18.48;;
74648;SDS011;63168;49.280;7.214;2022-12-10T11:23:51;44.35;;;18.42;;
74648;SDS011;63168;49.280;7.214;2022-12-10T11:26:24;42.88;;;17.02;;
74648;SDS011;63168;49.280;7.214;2022-12-10T11:29:07;40.20;;;18.08;;
74648;SDS011;63168;49.280;7.214;2022-12-10T11:31:49;41.58;;;16.75;;
74648;SDS011;63168;49.280;7.214;2022-12-10T11:34:27;35.38;;;16.23;;
74648;SDS011;63168;49.280;7.214;2022-12-10T11:37:07;36.97;;;15.18;;
74648;SDS011;63168;49.280;7.214;2022-12-10T11:39:47;38.22;;;15.80;;
74648;SDS011;63168;49.280;7.214;2022-12-10T11:42:22;36.25;;;15.60;;
74648;SDS011;63168;49.280;7.214;2022-12-10T11:44:56;33.55;;;14.75;;
74648;SDS011;63168;49.280;7.214;2022-12-10T11:47:33;35.97;;;15.40;;
74648;SDS011;63168;49.280;7.214;2022-12-10T11:50:12;38.35;;;15.95;;
74648;SDS011;63168;49.280;7.214;2022-12-10T11:52:51;33.72;;;14.20;;
74648;SDS011;63168;49.280;7.214;2022-12-10T11:55:27;39.08;;;16.10;;
74648;SDS011;63168;49.280;7.214;2022-12-10T11:58:11;32.90;;;14.35;;
74648;SDS011;63168;49.280;7.214;2022-12-10T12:00:51;33.97;;;14.48;;
74648;SDS011;63168;49.280;7.214;2022-12-10T12:03:32;30.27;;;13.52;;
74648;SDS011;63168;49.280;7.214;2022-12-10T12:06:20;32.70;;;13.10;;
74648;SDS011;63168;49.280;7.214;2022-12-10T12:09:02;31.05;;;13.25;;
74648;SDS011;63168;49.280;7.214;2022-12-10T12:11:38;31.80;;;12.57;;
74648;SDS011;63168;49.280;7.214;2022-12-10T12:14:16;28.85;;;13.15;;
74648;SDS011;63168;49.280;7.214;2022-12-10T12:16:48;28.13;;;12.15;;
74648;SDS011;63168;49.280;7.214;2022-12-10T12:19:22;24.90;;;11.88;;
74648;SDS011;63168;49.280;7.214;2022-12-10T12:21:55;54.33;;;21.65;;
74648;SDS011;63168;49.280;7.214;2022-12-10T12:24:29;50.43;;;23.17;;
74648;SDS011;63168;49.280;7.214;2022-12-10T12:27:00;56.03;;;23.17;;
74648;SDS011;63168;49.280;7.214;2022-12-10T12:29:32;54.00;;;21.90;;
74648;SDS011;63168;49.280;7.214;2022-12-10T12:32:02;53.65;;;23.35;;
74648;SDS011;63168;49.280;7.214;2022-12-10T12:34:33;52.58;;;23.10;;
74648;SDS011;63168;49.280;7.214;2022-12-10T12:37:09;49.97;;;21.13;;
74648;SDS011;63168;49.280;7.214;2022-12-10T12:39:43;44.40;;;20.08;;
74648;SDS011;63168;49.280;7.214;2022-12-10T12:42:17;45.05;;;20.25;;
74648;SDS011;63168;49.280;7.214;2022-12-10T12:45:01;44.97;;;19.73;;
74648;SDS011;63168;49.280;7.214;2022-12-10T12:47:30;45.55;;;19.60;;
74648;SDS011;63168;49.280;7.214;2022-12-10T12:50:04;47.00;;;19.33;;
74648;SDS011;63168;49.280;7.214;2022-12-10T12:52:40;45.65;;;19.02;;
74648;SDS011;63168;49.280;7.214;2022-12-10T12:55:13;42.75;;;19.27;;
74648;SDS011;63168;49.280;7.214;2022-12-10T12:57:43;49.47;;;21.45;;
74648;SDS011;63168;49.280;7.214;2022-12-10T13:00:13;91.72;;;39.13;;
74648;SDS011;63168;49.280;7.214;2022-12-10T13:02:47;106.70;;;41.63;;
74648;SDS011;63168;49.280;7.214;2022-12-10T13:05:20;103.03;;;42.10;;
74648;SDS011;63168;49.280;7.214;2022-12-10T13:10:51;102.65;;;42.97;;
74648;SDS011;63168;49.280;7.214;2022-12-10T13:13:22;99.30;;;40.92;;
74648;SDS011;63168;49.280;7.214;2022-12-10T13:15:50;99.72;;;39.58;;
74648;SDS011;63168;49.280;7.214;2022-12-10T13:18:20;94.35;;;40.28;;
74648;SDS011;63168;49.280;7.214;2022-12-10T13:21:19;99.47;;;39.08;;
74648;SDS011;63168;49.280;7.214;2022-12-10T13:23:53;94.55;;;39.95;;
74648;SDS011;63168;49.280;7.214;2022-12-10T13:26:31;97.13;;;39.50;;
74648;SDS011;63168;49.280;7.214;2022-12-10T13:29:11;86.93;;;36.13;;
74648;SDS011;63168;49.280;7.214;2022-12-10T13:31:52;83.15;;;35.50;;
74648;SDS011;63168;49.280;7.214;2022-12-10T13:34:22;90.30;;;36.97;;
74648;SDS011;63168;49.280;7.214;2022-12-10T13:37:05;88.43;;;35.50;;
74648;SDS011;63168;49.280;7.214;2022-12-10T13:39:59;83.97;;;34.63;;
74648;SDS011;63168;49.280;7.214;2022-12-10T13:42:37;83.88;;;34.55;;
74648;SDS011;63168;49.280;7.214;2022-12-10T13:45:24;82.22;;;33.47;;
74648;SDS011;63168;49.280;7.214;2022-12-10T13:51:03;75.03;;;31.90;;
74648;SDS011;63168;49.280;7.214;2022-12-10T13:53:47;76.60;;;32.50;;
74648;SDS011;63168;49.280;7.214;2022-12-10T13:56:25;79.88;;;30.10;;
74648;SDS011;63168;49.280;7.214;2022-12-10T13:58:57;73.32;;;30.23;;
74648;SDS011;63168;49.280;7.214;2022-12-10T14:01:37;68.65;;;30.00;;
74648;SDS011;63168;49.280;7.214;2022-12-10T14:04:14;69.30;;;30.58;;
74648;SDS011;63168;49.280;7.214;2022-12-10T14:07:06;71.75;;;29.33;;
74648;SDS011;63168;49.280;7.214;2022-12-10T14:09:33;66.00;;;28.10;;
74648;SDS011;63168;49.280;7.214;2022-12-10T14:12:05;65.43;;;28.80;;
74648;SDS011;63168;49.280;7.214;2022-12-10T14:14:36;65.18;;;28.70;;
74648;SDS011;63168;49.280;7.214;2022-12-10T14:17:06;63.83;;;28.57;;
74648;SDS011;63168;49.280;7.214;2022-12-10T14:19:37;59.58;;;27.17;;
74648;SDS011;63168;49.280;7.214;2022-12-10T14:22:04;62.25;;;26.88;;
74648;SDS011;63168;49.280;7.214;2022-12-10T14:24:32;64.03;;;27.30;;
74648;SDS011;63168;49.280;7.214;2022-12-10T14:27:00;62.45;;;27.10;;
74648;SDS011;63168;49.280;7.214;2022-12-10T14:29:30;57.47;;;25.38;;
74648;SDS011;63168;49.280;7.214;2022-12-10T14:31:55;58.92;;;24.83;;
74648;SDS011;63168;49.280;7.214;2022-12-10T14:34:23;57.67;;;24.52;;
74648;SDS011;63168;49.280;7.214;2022-12-10T14:36:51;57.30;;;24.73;;
74648;SDS011;63168;49.280;7.214;2022-12-10T14:39:19;51.97;;;23.20;;
74648;SDS011;63168;49.280;7.214;2022-12-10T14:41:46;53.63;;;25.45;;
74648;SDS011;63168;49.280;7.214;2022-12-10T14:44:13;54.45;;;22.92;;
74648;SDS011;63168;49.280;7.214;2022-12-10T14:46:42;51.93;;;22.30;;
74648;SDS011;63168;49.280;7.214;2022-12-10T14:49:08;50.30;;;22.55;;
74648;SDS011;63168;49.280;7.214;2022-12-10T14:51:40;48.10;;;22.83;;
74648;SDS011;63168;49.280;7.214;2022-12-10T14:54:12;48.83;;;22.30;;
74648;SDS011;63168;49.280;7.214;2022-12-10T14:56:58;46.58;;;20.63;;
74648;SDS011;63168;49.280;7.214;2022-12-10T14:59:26;45.30;;;20.13;;
74648;SDS011;63168;49.280;7.214;2022-12-10T15:02:01;43.63;;;19.35;;
74648;SDS011;63168;49.280;7.214;2022-12-10T15:04:39;43.55;;;19.48;;
74648;SDS011;63168;49.280;7.214;2022-12-10T15:07:07;45.80;;;20.65;;
74648;SDS011;63168;49.280;7.214;2022-12-10T15:09:37;42.58;;;19.83;;
74648;SDS011;63168;49.280;7.214;2022-12-10T15:12:03;44.47;;;21.27;;
74648;SDS011;63168;49.280;7.214;2022-12-10T15:14:29;42.70;;;19.08;;
74648;SDS011;63168;49.280;7.214;2022-12-10T15:16:56;44.72;;;19.85;;
74648;SDS011;63168;49.280;7.214;2022-12-10T15:19:24;39.20;;;17.58;;
74648;SDS011;63168;49.280;7.214;2022-12-10T15:21:58;39.72;;;17.83;;
74648;SDS011;63168;49.280;7.214;2022-12-10T15:24:25;39.47;;;17.30;;
74648;SDS011;63168;49.280;7.214;2022-12-10T15:26:53;41.58;;;18.95;;
74648;SDS011;63168;49.280;7.214;2022-12-10T15:29:34;38.90;;;17.83;;
74648;SDS011;63168;49.280;7.214;2022-12-10T15:32:01;34.80;;;16.63;;
74648;SDS011;63168;49.280;7.214;2022-12-10T15:34:32;35.88;;;17.30;;
74648;SDS011;63168;49.280;7.214;2022-12-10T15:37:03;37.60;;;15.65;;
74648;SDS011;63168;49.280;7.214;2022-12-10T15:39:30;37.13;;;15.33;;
74648;SDS011;63168;49.280;7.214;2022-12-10T15:42:00;36.88;;;16.80;;
74648;SDS011;63168;49.280;7.214;2022-12-10T15:44:27;32.33;;;15.88;;
74648;SDS011;63168;49.280;7.214;2022-12-10T15:47:00;37.53;;;16.77;;
74648;SDS011;63168;49.280;7.214;2022-12-10T15:49:28;34.53;;;15.75;;
74648;SDS011;63168;49.280;7.214;2022-12-10T15:51:55;32.25;;;15.40;;
74648;SDS011;63168;49.280;7.214;2022-12-10T15:54:22;34.88;;;14.85;;
74648;SDS011;63168;49.280;7.214;2022-12-10T15:56:53;29.60;;;14.23;;
74648;SDS011;63168;49.280;7.214;2022-12-10T15:59:19;35.92;;;14.77;;
74648;SDS011;63168;49.280;7.214;2022-12-10T16:01:44;35.70;;;14.73;;
74648;SDS011;63168;49.280;7.214;2022-12-10T16:04:10;31.75;;;14.77;;
74648;SDS011;63168;49.280;7.214;2022-12-10T16:06:36;29.48;;;13.90;;
74648;SDS011;63168;49.280;7.214;2022-12-10T16:09:03;30.30;;;13.80;;
74648;SDS011;63168;49.280;7.214;2022-12-10T16:11:29;28.23;;;13.75;;
74648;SDS011;63168;49.280;7.214;2022-12-10T16:13:54;30.70;;;13.13;;
74648;SDS011;63168;49.280;7.214;2022-12-10T16:16:22;34.97;;;13.93;;
74648;SDS011;63168;49.280;7.214;2022-12-10T16:18:48;29.25;;;12.55;;
74648;SDS011;63168;49.280;7.214;2022-12-10T16:21:14;27.15;;;13.05;;
74648;SDS011;63168;49.280;7.214;2022-12-10T16:23:39;29.27;;;12.87;;
74648;SDS011;63168;49.280;7.214;2022-12-10T16:26:10;26.80;;;12.40;;
74648;SDS011;63168;49.280;7.214;2022-12-10T16:28:38;26.80;;;11.70;;
74648;SDS011;63168;49.280;7.214;2022-12-10T16:31:04;26.30;;;12.27;;
74648;SDS011;63168;49.280;7.214;2022-12-10T16:33:29;25.90;;;11.70;;
74648;SDS011;63168;49.280;7.214;2022-12-10T16:35:55;24.55;;;11.32;;
74648;SDS011;63168;49.280;7.214;2022-12-10T16:38:22;26.33;;;12.63;;
74648;SDS011;63168;49.280;7.214;2022-12-10T16:40:48;21.33;;;10.57;;
74648;SDS011;63168;49.280;7.214;2022-12-10T16:43:17;24.10;;;10.50;;
74648;SDS011;63168;49.280;7.214;2022-12-10T16:45:44;22.33;;;11.63;;
74648;SDS011;63168;49.280;7.214;2022-12-10T16:48:10;21.57;;;10.33;;
74648;SDS011;63168;49.280;7.214;2022-12-10T16:50:36;22.10;;;10.65;;
74648;SDS011;63168;49.280;7.214;2022-12-10T16:53:03;21.55;;;10.90;;
74648;SDS011;63168;49.280;7.214;2022-12-10T16:55:36;20.87;;;10.07;;
74648;SDS011;63168;49.280;7.214;2022-12-10T16:58:02;19.60;;;10.37;;
74648;SDS011;63168;49.280;7.214;2022-12-10T17:00:28;20.00;;;9.77;;
74648;SDS011;63168;49.280;7.214;2022-12-10T17:02:54;22.10;;;9.88;;
74648;SDS011;63168;49.280;7.214;2022-12-10T17:05:22;20.67;;;9.93;;
74648;SDS011;63168;49.280;7.214;2022-12-10T17:07:52;23.70;;;10.20;;
74648;SDS011;63168;49.280;7.214;2022-12-10T17:10:18;19.83;;;9.57;;
74648;SDS011;63168;49.280;7.214;2022-12-10T17:13:03;20.13;;;9.48;;
74648;SDS011;63168;49.280;7.214;2022-12-10T17:15:30;18.83;;;9.50;;
74648;SDS011;63168;49.280;7.214;2022-12-10T17:17:56;21.48;;;9.27;;
74648;SDS011;63168;49.280;7.214;2022-12-10T17:20:21;18.33;;;9.20;;
74648;SDS011;63168;49.280;7.214;2022-12-10T17:22:50;18.08;;;9.68;;
74648;SDS011;63168;49.280;7.214;2022-12-10T17:25:15;16.70;;;8.30;;
74648;SDS011;63168;49.280;7.214;2022-12-10T17:27:41;18.53;;;8.43;;
74648;SDS011;63168;49.280;7.214;2022-12-10T17:30:09;18.57;;;8.53;;
74648;SDS011;63168;49.280;7.214;2022-12-10T17:32:39;19.70;;;8.85;;
74648;SDS011;63168;49.280;7.214;2022-12-10T17:35:05;15.88;;;7.95;;
74648;SDS011;63168;49.280;7.214;2022-12-10T17:37:34;17.73;;;8.30;;
74648;SDS011;63168;49.280;7.214;2022-12-10T17:40:01;16.02;;;7.97;;
74648;SDS011;63168;49.280;7.214;2022-12-10T17:42:27;15.43;;;7.45;;
74648;SDS011;63168;49.280;7.214;2022-12-10T17:44:52;15.80;;;7.50;;
74648;SDS011;63168;49.280;7.214;2022-12-10T17:47:19;14.07;;;7.77;;
74648;SDS011;63168;49.280;7.214;2022-12-10T17:49:48;16.05;;;7.50;;
74648;SDS011;63168;49.280;7.214;2022-12-10T17:52:14;15.02;;;7.45;;
74648;SDS011;63168;49.280;7.214;2022-12-10T17:54:39;13.98;;;7.00;;
74648;SDS011;63168;49.280;7.214;2022-12-10T17:57:08;15.50;;;7.50;;
74648;SDS011;63168;49.280;7.214;2022-12-10T17:59:36;14.13;;;6.77;;
74648;SDS011;63168;49.280;7.214;2022-12-10T18:02:02;14.35;;;7.25;;
74648;SDS011;63168;49.280;7.214;2022-12-10T18:04:27;13.73;;;7.27;;
74648;SDS011;63168;49.280;7.214;2022-12-10T18:06:54;14.05;;;6.68;;
74648;SDS011;63168;49.280;7.214;2022-12-10T18:09:19;13.30;;;6.45;;
74648;SDS011;63168;49.280;7.214;2022-12-10T18:11:45;12.20;;;6.70;;
74648;SDS011;63168;49.280;7.214;2022-12-10T18:14:12;12.93;;;6.67;;
74648;SDS011;63168;49.280;7.214;2022-12-10T18:16:39;12.52;;;5.93;;
74648;SDS011;63168;49.280;7.214;2022-12-10T18:19:06;12.32;;;5.82;;
74648;SDS011;63168;49.280;7.214;2022-12-10T18:21:36;12.45;;;6.18;;
74648;SDS011;63168;49.280;7.214;2022-12-10T18:24:03;12.83;;;6.40;;
74648;SDS011;63168;49.280;7.214;2022-12-10T18:26:29;11.77;;;5.97;;
74648;SDS011;63168;49.280;7.214;2022-12-10T18:28:57;11.02;;;5.65;;
74648;SDS011;63168;49.280;7.214;2022-12-10T18:31:24;11.85;;;5.88;;
74648;SDS011;63168;49.280;7.214;2022-12-10T18:33:53;11.07;;;5.65;;
74648;SDS011;63168;49.280;7.214;2022-12-10T18:36:21;10.05;;;5.32;;
74648;SDS011;63168;49.280;7.214;2022-12-10T18:38:48;13.02;;;5.95;;
74648;SDS011;63168;49.280;7.214;2022-12-10T18:41:15;10.70;;;5.45;;
74648;SDS011;63168;49.280;7.214;2022-12-10T18:43:42;11.05;;;5.38;;
74648;SDS011;63168;49.280;7.214;2022-12-10T18:46:11;11.48;;;5.32;;
74648;SDS011;63168;49.280;7.214;2022-12-10T18:48:38;10.50;;;5.00;;
74648;SDS011;63168;49.280;7.214;2022-12-10T18:51:03;10.67;;;5.53;;
74648;SDS011;63168;49.280;7.214;2022-12-10T18:53:29;12.35;;;5.47;;
74648;SDS011;63168;49.280;7.214;2022-12-10T18:55:55;11.13;;;5.32;;
74648;SDS011;63168;49.280;7.214;2022-12-10T18:58:23;10.88;;;5.55;;
74648;SDS011;63168;49.280;7.214;2022-12-10T19:00:48;11.83;;;5.67;;
74648;SDS011;63168;49.280;7.214;2022-12-10T19:03:13;11.20;;;5.20;;
74648;SDS011;63168;49.280;7.214;2022-12-10T19:05:39;11.40;;;5.43;;
74648;SDS011;63168;49.280;7.214;2022-12-10T19:08:04;9.75;;;4.95;;
74648;SDS011;63168;49.280;7.214;2022-12-10T19:10:30;11.13;;;5.40;;
74648;SDS011;63168;49.280;7.214;2022-12-10T19:12:55;15.33;;;8.10;;
74648;SDS011;63168;49.280;7.214;2022-12-10T19:15:22;17.58;;;11.27;;
74648;SDS011;63168;49.280;7.214;2022-12-10T19:17:48;18.35;;;10.55;;
74648;SDS011;63168;49.280;7.214;2022-12-10T19:20:15;16.30;;;9.83;;
74648;SDS011;63168;49.280;7.214;2022-12-10T19:22:42;17.98;;;10.65;;
74648;SDS011;63168;49.280;7.214;2022-12-10T19:25:08;16.97;;;9.57;;
74648;SDS011;63168;49.280;7.214;2022-12-10T19:27:34;16.30;;;9.85;;
74648;SDS011;63168;49.280;7.214;2022-12-10T19:30:00;17.55;;;10.23;;
74648;SDS011;63168;49.280;7.214;2022-12-10T19:32:26;16.13;;;9.33;;
74648;SDS011;63168;49.280;7.214;2022-12-10T19:34:52;17.70;;;10.77;;
74648;SDS011;63168;49.280;7.214;2022-12-10T19:37:17;15.10;;;9.03;;
74648;SDS011;63168;49.280;7.214;2022-12-10T19:39:43;15.18;;;10.05;;
74648;SDS011;63168;49.280;7.214;2022-12-10T19:42:08;13.33;;;8.90;;
74648;SDS011;63168;49.280;7.214;2022-12-10T19:44:34;15.50;;;8.93;;
74648;SDS011;63168;49.280;7.214;2022-12-10T19:46:59;13.73;;;8.95;;
74648;SDS011;63168;49.280;7.214;2022-12-10T19:49:26;15.60;;;9.37;;
74648;SDS011;63168;49.280;7.214;2022-12-10T19:51:51;13.80;;;8.50;;
74648;SDS011;63168;49.280;7.214;2022-12-10T19:54:17;15.27;;;8.67;;
74648;SDS011;63168;49.280;7.214;2022-12-10T19:56:42;14.57;;;8.80;;
74648;SDS011;63168;49.280;7.214;2022-12-10T19:59:10;14.27;;;8.40;;
74648;SDS011;63168;49.280;7.214;2022-12-10T20:01:37;13.40;;;8.90;;
74648;SDS011;63168;49.280;7.214;2022-12-10T20:04:03;14.97;;;8.70;;
74648;SDS011;63168;49.280;7.214;2022-12-10T20:06:31;13.95;;;8.07;;
74648;SDS011;63168;49.280;7.214;2022-12-10T20:09:00;11.88;;;7.80;;
74648;SDS011;63168;49.280;7.214;2022-12-10T20:11:27;12.75;;;8.45;;
74648;SDS011;63168;49.280;7.214;2022-12-10T20:13:53;12.10;;;7.93;;
74648;SDS011;63168;49.280;7.214;2022-12-10T20:16:20;13.10;;;8.20;;
74648;SDS011;63168;49.280;7.214;2022-12-10T20:18:47;13.73;;;8.25;;
74648;SDS011;63168;49.280;7.214;2022-12-10T20:21:13;13.47;;;8.00;;
74648;SDS011;63168;49.280;7.214;2022-12-10T20:23:40;12.88;;;7.90;;
74648;SDS011;63168;49.280;7.214;2022-12-10T20:26:11;11.63;;;7.70;;
74648;SDS011;63168;49.280;7.214;2022-12-10T20:28:40;12.82;;;7.57;;
74648;SDS011;63168;49.280;7.214;2022-12-10T20:31:05;11.80;;;7.20;;
74648;SDS011;63168;49.280;7.214;2022-12-10T20:33:31;12.20;;;8.03;;
74648;SDS011;63168;49.280;7.214;2022-12-10T20:35:56;10.93;;;7.25;;
74648;SDS011;63168;49.280;7.214;2022-12-10T20:38:22;12.98;;;7.03;;
74648;SDS011;63168;49.280;7.214;2022-12-10T20:40:49;12.60;;;8.20;;
74648;SDS011;63168;49.280;7.214;2022-12-10T20:43:15;11.50;;;7.38;;
74648;SDS011;63168;49.280;7.214;2022-12-10T20:45:40;11.10;;;7.17;;
74648;SDS011;63168;49.280;7.214;2022-12-10T20:48:05;11.57;;;7.13;;
74648;SDS011;63168;49.280;7.214;2022-12-10T20:50:33;10.27;;;6.82;;
74648;SDS011;63168;49.280;7.214;2022-12-10T20:52:58;10.37;;;6.80;;
74648;SDS011;63168;49.280;7.214;2022-12-10T20:55:24;11.40;;;7.00;;
74648;SDS011;63168;49.280;7.214;2022-12-10T20:57:51;10.87;;;6.80;;
74648;SDS011;63168;49.280;7.214;2022-12-10T21:00:17;11.45;;;6.95;;
74648;SDS011;63168;49.280;7.214;2022-12-10T21:02:45;11.23;;;6.80;;
74648;SDS011;63168;49.280;7.214;2022-12-10T21:05:10;10.43;;;6.78;;
74648;SDS011;63168;49.280;7.214;2022-12-10T21:07:36;10.97;;;6.40;;
74648;SDS011;63168;49.280;7.214;2022-12-10T21:10:02;9.45;;;6.50;;
74648;SDS011;63168;49.280;7.214;2022-12-10T21:12:27;10.02;;;6.03;;
74648;SDS011;63168;49.280;7.214;2022-12-10T21:14:54;8.53;;;6.50;;
74648;SDS011;63168;49.280;7.214;2022-12-10T21:17:20;10.52;;;6.63;;
74648;SDS011;63168;49.280;7.214;2022-12-10T21:19:45;11.30;;;6.50;;
74648;SDS011;63168;49.280;7.214;2022-12-10T21:22:11;9.73;;;6.27;;
74648;SDS011;63168;49.280;7.214;2022-12-10T21:24:37;9.67;;;6.37;;
74648;SDS011;63168;49.280;7.214;2022-12-10T21:27:02;8.00;;;5.90;;
74648;SDS011;63168;49.280;7.214;2022-12-10T21:29:28;9.43;;;5.87;;
74648;SDS011;63168;49.280;7.214;2022-12-10T21:31:55;10.20;;;5.80;;
74648;SDS011;63168;49.280;7.214;2022-12-10T21:34:20;9.83;;;5.73;;
74648;SDS011;63168;49.280;7.214;2022-12-10T21:36:46;9.38;;;6.15;;
74648;SDS011;63168;49.280;7.214;2022-12-10T21:39:12;8.55;;;5.60;;
74648;SDS011;63168;49.280;7.214;2022-12-10T21:41:38;9.03;;;5.50;;
74648;SDS011;63168;49.280;7.214;2022-12-10T21:44:22;9.35;;;5.82;;
74648;SDS011;63168;49.280;7.214;2022-12-10T21:46:47;9.67;;;5.67;;
74648;SDS011;63168;49.280;7.214;2022-12-10T21:49:14;9.68;;;6.10;;
74648;SDS011;63168;49.280;7.214;2022-12-10T21:51:40;9.77;;;5.63;;
74648;SDS011;63168;49.280;7.214;2022-12-10T21:54:05;8.38;;;5.72;;
74648;SDS011;63168;49.280;7.214;2022-12-10T21:56:31;9.20;;;5.80;;
74648;SDS011;63168;49.280;7.214;2022-12-10T21:58:57;9.27;;;5.90;;
74648;SDS011;63168;49.280;7.214;2022-12-10T22:01:22;8.73;;;5.70;;
74648;SDS011;63168;49.280;7.214;2022-12-10T22:03:48;7.45;;;5.20;;
74648;SDS011;63168;49.280;7.214;2022-12-10T22:06:18;8.57;;;5.70;;
74648;SDS011;63168;49.280;7.214;2022-12-10T22:08:47;9.15;;;5.55;;
74648;SDS011;63168;49.280;7.214;2022-12-10T22:11:13;8.17;;;5.37;;
74648;SDS011;63168;49.280;7.214;2022-12-10T22:13:38;8.10;;;5.55;;
74648;SDS011;63168;49.280;7.214;2022-12-10T22:16:04;8.63;;;5.30;;
74648;SDS011;63168;49.280;7.214;2022-12-10T22:18:30;8.57;;;5.40;;
74648;SDS011;63168;49.280;7.214;2022-12-10T22:20:56;8.67;;;5.10;;
74648;SDS011;63168;49.280;7.214;2022-12-10T22:23:24;7.78;;;5.18;;
74648;SDS011;63168;49.280;7.214;2022-12-10T22:25:52;7.45;;;5.10;;
74648;SDS011;63168;49.280;7.214;2022-12-10T22:28:18;9.18;;;5.45;;
74648;SDS011;63168;49.280;7.214;2022-12-10T22:30:43;9.27;;;5.10;;
74648;SDS011;63168;49.280;7.214;2022-12-10T22:33:09;8.73;;;5.43;;
74648;SDS011;63168;49.280;7.214;2022-12-10T22:35:34;7.87;;;4.87;;
74648;SDS011;63168;49.280;7.214;2022-12-10T22:38:01;7.10;;;4.88;;
74648;SDS011;63168;49.280;7.214;2022-12-10T22:40:28;6.93;;;4.93;;
74648;SDS011;63168;49.280;7.214;2022-12-10T22:42:53;8.50;;;5.03;;
74648;SDS011;63168;49.280;7.214;2022-12-10T22:45:19;7.97;;;5.20;;
74648;SDS011;63168;49.280;7.214;2022-12-10T22:47:45;7.37;;;4.83;;
74648;SDS011;63168;49.280;7.214;2022-12-10T22:50:11;8.13;;;5.20;;
74648;SDS011;63168;49.280;7.214;2022-12-10T22:52:36;8.40;;;4.70;;
74648;SDS011;63168;49.280;7.214;2022-12-10T22:55:02;7.37;;;4.73;;
74648;SDS011;63168;49.280;7.214;2022-12-10T22:57:29;8.35;;;4.90;;
74648;SDS011;63168;49.280;7.214;2022-12-10T22:59:55;6.93;;;5.00;;
74648;SDS011;63168;49.280;7.214;2022-12-10T23:02:20;6.67;;;4.70;;
74648;SDS011;63168;49.280;7.214;2022-12-10T23:04:46;6.43;;;4.20;;
74648;SDS011;63168;49.280;7.214;2022-12-10T23:07:12;7.05;;;4.65;;
74648;SDS011;63168;49.280;7.214;2022-12-10T23:09:38;7.07;;;4.57;;
74648;SDS011;63168;49.280;7.214;2022-12-10T23:12:05;7.53;;;4.63;;
74648;SDS011;63168;49.280;7.214;2022-12-10T23:14:50;7.25;;;4.40;;
74648;SDS011;63168;49.280;7.214;2022-12-10T23:17:15;9.07;;;4.83;;
74648;SDS011;63168;49.280;7.214;2022-12-10T23:19:41;7.40;;;4.90;;
74648;SDS011;63168;49.280;7.214;2022-12-10T23:22:06;7.57;;;4.67;;
74648;SDS011;63168;49.280;7.214;2022-12-10T23:24:32;6.38;;;4.40;;
74648;SDS011;63168;49.280;7.214;2022-12-10T23:26:57;6.20;;;4.20;;
74648;SDS011;63168;49.280;7.214;2022-12-10T23:29:23;7.07;;;4.23;;
74648;SDS011;63168;49.280;7.214;2022-12-10T23:31:49;7.72;;;4.78;;
74648;SDS011;63168;49.280;7.214;2022-12-10T23:34:15;6.53;;;4.25;;
74648;SDS011;63168;49.280;7.214;2022-12-10T23:36:40;7.28;;;4.53;;
74648;SDS011;63168;49.280;7.214;2022-12-10T23:39:06;6.53;;;4.57;;
74648;SDS011;63168;49.280;7.214;2022-12-10T23:41:31;6.43;;;4.20;;
74648;SDS011;63168;49.280;7.214;2022-12-10T23:43:57;7.00;;;4.30;;
74648;SDS011;63168;49.280;7.214;2022-12-10T23:46:22;6.53;;;4.10;;
74648;SDS011;63168;49.280;7.214;2022-12-10T23:48:49;8.20;;;4.30;;
74648;SDS011;63168;49.280;7.214;2022-12-10T23:51:14;6.80;;;4.60;;
74648;SDS011;63168;49.280;7.214;2022-12-10T23:53:40;6.40;;;4.33;;
74648;SDS011;63168;49.280;7.214;2022-12-10T23:56:11;6.15;;;3.78;;
74648;SDS011;63168;49.280;7.214;2022-12-10T23:58:39;6.55;;;4.18;;
